Time;durP1;ratioP1;P1;durP2;ratioP2;P2;SDS_P1;SDS_P2;PMS_P1;PMS_P2;Temp;Humidity;BMP_temperature;BMP_pressure;BME280_temperature;BME280_humidity;BME280_pressure;Samples;Min_cycle;Max_cycle;Signal;HPM_P1;HPM_P2
2023/12/21 00:02:20;;;;;;;3.25;2.40;;;10.20;90.20;;;;;;4936718;29;20441;-80
2023/12/21 00:04:46;;;;;;;3.90;2.00;;;10.20;90.00;;;;;;4931199;29;20247;-80
2023/12/21 00:07:12;;;;;;;2.85;1.90;;;10.20;90.00;;;;;;4949241;29;20062;-80
2023/12/21 00:09:38;;;;;;;1.70;1.60;;;10.20;90.00;;;;;;4950850;29;20514;-80
2023/12/21 00:12:04;;;;;;;2.72;2.00;;;10.20;89.90;;;;;;4948793;28;20577;-81
2023/12/21 00:14:30;;;;;;;3.08;1.77;;;10.20;89.50;;;;;;4950678;29;20035;-80
2023/12/21 00:16:57;;;;;;;2.60;2.00;;;10.20;89.40;;;;;;4951013;29;20402;-80
2023/12/21 00:19:23;;;;;;;1.73;1.63;;;10.20;89.30;;;;;;4949874;29;20438;-82
2023/12/21 00:21:49;;;;;;;3.15;2.17;;;10.20;89.20;;;;;;4951137;29;20031;-80
2023/12/21 00:24:15;;;;;;;2.10;1.90;;;10.20;89.10;;;;;;4931597;29;20474;-81
2023/12/21 00:26:41;;;;;;;3.22;1.90;;;10.20;89.00;;;;;;4949852;29;20114;-81
2023/12/21 00:29:08;;;;;;;2.55;1.80;;;10.20;89.10;;;;;;4930485;29;20468;-81
2023/12/21 00:31:34;;;;;;;2.25;2.05;;;10.20;89.10;;;;;;4930295;29;20035;-81
2023/12/21 00:34:00;;;;;;;2.25;1.70;;;10.10;89.00;;;;;;4931735;29;20082;-81
2023/12/21 00:36:26;;;;;;;2.72;2.05;;;10.20;89.00;;;;;;4928701;29;20023;-80
2023/12/21 00:38:52;;;;;;;4.95;2.17;;;10.20;88.90;;;;;;4932024;29;20438;-82
2023/12/21 00:41:18;;;;;;;3.38;2.00;;;10.10;88.90;;;;;;4930722;28;20047;-80
2023/12/21 00:43:44;;;;;;;1.92;1.83;;;10.10;89.00;;;;;;4949401;29;20042;-81
2023/12/21 00:46:10;;;;;;;2.70;2.05;;;10.10;89.10;;;;;;4938309;29;21030;-81
2023/12/21 00:48:36;;;;;;;2.30;2.10;;;10.10;89.10;;;;;;4933103;29;20085;-81
2023/12/21 00:51:02;;;;;;;2.10;1.90;;;10.10;88.80;;;;;;4934796;29;20042;-80
2023/12/21 00:53:28;;;;;;;2.20;2.00;;;10.10;88.70;;;;;;4916376;29;20079;-81
2023/12/21 00:55:54;;;;;;;2.22;2.00;;;10.10;88.80;;;;;;4917102;29;20070;-81
2023/12/21 00:58:20;;;;;;;3.08;1.73;;;10.10;88.70;;;;;;4920446;29;20058;-81
2023/12/21 01:00:46;;;;;;;2.40;2.05;;;10.10;88.60;;;;;;4914359;29;20036;-81
2023/12/21 01:03:12;;;;;;;1.98;1.58;;;10.10;89.10;;;;;;4925514;29;20032;-81
2023/12/21 01:05:38;;;;;;;1.70;1.60;;;10.10;89.00;;;;;;4930791;29;20042;-80
2023/12/21 01:08:05;;;;;;;2.03;1.70;;;10.10;88.80;;;;;;4948374;29;20035;-81
2023/12/21 01:10:33;;;;;;;2.65;1.60;;;10.10;88.80;;;;;;4948206;29;20047;-82
2023/12/21 01:12:59;;;;;;;1.27;1.17;;;10.10;88.60;;;;;;4948177;29;20491;-80
2023/12/21 01:15:26;;;;;;;1.92;1.73;;;10.10;89.50;;;;;;4937339;29;20031;-80
2023/12/21 01:17:52;;;;;;;2.22;1.42;;;10.10;89.00;;;;;;4932684;29;20097;-80
2023/12/21 01:20:18;;;;;;;2.58;1.38;;;10.10;89.20;;;;;;4951182;29;20494;-79
2023/12/21 01:22:44;;;;;;;1.27;1.10;;;10.10;89.20;;;;;;4947987;29;20036;-81
2023/12/21 01:25:10;;;;;;;1.73;1.15;;;10.10;88.80;;;;;;4917494;29;20514;-80
2023/12/21 01:27:36;;;;;;;0.90;0.90;;;10.00;88.60;;;;;;4949312;29;20046;-79
2023/12/21 01:30:02;;;;;;;0.73;0.73;;;10.10;88.70;;;;;;4927668;29;20047;-78
2023/12/21 01:32:29;;;;;;;1.27;1.00;;;10.10;88.70;;;;;;4948565;29;20035;-78
2023/12/21 01:34:54;;;;;;;1.30;1.20;;;10.00;88.50;;;;;;4947998;29;20183;-79
2023/12/21 01:37:21;;;;;;;2.40;0.90;;;10.10;88.70;;;;;;4931172;28;20514;-80
2023/12/21 01:39:47;;;;;;;1.25;1.10;;;10.00;88.50;;;;;;4924787;29;20090;-80
2023/12/21 01:42:13;;;;;;;2.58;1.00;;;10.00;88.60;;;;;;4945813;29;20039;-80
2023/12/21 01:44:39;;;;;;;0.88;0.80;;;10.00;88.60;;;;;;4927755;29;20368;-79
2023/12/21 01:47:05;;;;;;;1.17;0.82;;;10.00;88.80;;;;;;4937617;29;20423;-79
2023/12/21 01:49:31;;;;;;;0.80;0.73;;;10.00;88.70;;;;;;4948757;29;20554;-79
2023/12/21 01:51:58;;;;;;;1.80;0.70;;;10.00;88.90;;;;;;4914062;29;20039;-78
2023/12/21 01:54:25;;;;;;;0.65;0.60;;;10.00;88.80;;;;;;4920222;29;20198;-81
2023/12/21 01:56:51;;;;;;;1.05;0.93;;;10.00;89.10;;;;;;4929835;29;20067;-81
2023/12/21 01:59:17;;;;;;;0.93;0.80;;;10.00;88.80;;;;;;4931834;29;20082;-80
2023/12/21 02:01:43;;;;;;;0.70;0.60;;;10.00;89.10;;;;;;4946776;29;20150;-81
2023/12/21 02:04:10;;;;;;;1.00;0.90;;;10.00;89.50;;;;;;4947621;29;20142;-82
2023/12/21 02:06:36;;;;;;;1.38;0.65;;;10.00;88.70;;;;;;4929470;29;20038;-83
2023/12/21 02:09:02;;;;;;;0.90;0.90;;;10.00;89.00;;;;;;4946955;29;20046;-82
2023/12/21 02:11:28;;;;;;;0.60;0.60;;;10.00;88.90;;;;;;4948481;29;20043;-84
2023/12/21 02:13:54;;;;;;;0.82;0.80;;;10.00;89.00;;;;;;4948622;29;20043;-82
2023/12/21 02:16:35;;;;;;;1.38;0.70;;;10.00;88.70;;;;;;4947867;29;20039;-81
2023/12/21 02:19:02;;;;;;;0.80;0.60;;;10.00;88.90;;;;;;4930909;29;20066;-82
2023/12/21 02:21:30;;;;;;;1.00;0.88;;;10.00;88.90;;;;;;4949249;29;20125;-81
2023/12/21 02:24:00;;;;;;;0.90;0.63;;;10.00;89.00;;;;;;4931376;29;20031;-81
2023/12/21 02:26:26;;;;;;;1.58;0.70;;;9.90;89.10;;;;;;4900261;29;20027;-81
2023/12/21 02:28:52;;;;;;;0.70;0.52;;;10.00;89.10;;;;;;4899858;29;20031;-81
2023/12/21 02:31:18;;;;;;;1.15;0.80;;;9.90;89.20;;;;;;4948377;29;20040;-80
2023/12/21 02:33:44;;;;;;;0.70;0.70;;;10.00;88.90;;;;;;4947544;28;20043;-81
2023/12/21 02:36:10;;;;;;;1.35;0.60;;;9.90;88.70;;;;;;4928920;29;20040;-80
2023/12/21 02:38:37;;;;;;;1.15;0.80;;;9.90;88.60;;;;;;4947367;29;20042;-80
2023/12/21 02:41:03;;;;;;;4.20;0.80;;;9.90;88.40;;;;;;4947746;29;20043;-81
2023/12/21 02:43:29;;;;;;;1.75;1.10;;;9.90;88.30;;;;;;4920771;29;20087;-81
2023/12/21 02:45:55;;;;;;;0.60;0.60;;;9.90;88.30;;;;;;4923386;29;20035;-80
2023/12/21 02:48:21;;;;;;;1.10;0.80;;;9.90;88.40;;;;;;4948299;29;20486;-80
2023/12/21 02:50:47;;;;;;;1.08;0.98;;;9.90;88.30;;;;;;4946925;29;20406;-82
2023/12/21 02:53:13;;;;;;;1.10;0.88;;;9.90;88.40;;;;;;4931456;29;20089;-82
2023/12/21 02:55:39;;;;;;;0.80;0.80;;;9.90;88.60;;;;;;4947101;29;20031;-82
2023/12/21 02:58:05;;;;;;;1.00;0.90;;;9.90;88.60;;;;;;4947470;29;20134;-81
2023/12/21 03:00:31;;;;;;;1.00;0.90;;;9.90;88.70;;;;;;4915927;29;20039;-82
2023/12/21 03:02:57;;;;;;;1.25;1.15;;;9.90;88.80;;;;;;4947353;29;20051;-81
2023/12/21 03:05:23;;;;;;;1.17;1.08;;;9.90;88.80;;;;;;4947374;29;20055;-80
2023/12/21 03:07:48;;;;;;;1.27;1.10;;;9.90;88.90;;;;;;4926452;29;20028;-80
2023/12/21 03:10:15;;;;;;;1.48;1.10;;;9.90;89.00;;;;;;4929698;29;20040;-78
2023/12/21 03:12:41;;;;;;;2.78;1.27;;;9.90;88.80;;;;;;4946915;29;20090;-82
2023/12/21 03:15:08;;;;;;;2.55;1.48;;;9.90;88.70;;;;;;4947623;29;20039;-81
2023/12/21 03:17:34;;;;;;;1.58;1.48;;;9.90;88.60;;;;;;4930902;29;20051;-80
2023/12/21 03:20:01;;;;;;;2.15;1.27;;;9.90;88.60;;;;;;4913700;29;20040;-82
2023/12/21 03:22:27;;;;;;;2.20;1.60;;;9.90;88.60;;;;;;4946368;29;20509;-80
2023/12/21 03:24:53;;;;;;;2.97;1.77;;;9.90;88.80;;;;;;4946087;29;20043;-81
2023/12/21 03:27:19;;;;;;;2.53;1.55;;;9.90;88.70;;;;;;4945484;29;20067;-81
2023/12/21 03:29:45;;;;;;;1.90;1.30;;;9.90;88.80;;;;;;4945855;29;20078;-82
2023/12/21 03:32:12;;;;;;;2.03;1.50;;;9.80;88.80;;;;;;4927380;29;20089;-80
2023/12/21 03:34:38;;;;;;;2.20;1.45;;;9.90;89.00;;;;;;4927524;29;20059;-80
2023/12/21 03:37:04;;;;;;;2.25;1.45;;;9.90;88.90;;;;;;4948571;29;20086;-81
2023/12/21 03:39:29;;;;;;;1.60;1.33;;;9.80;88.90;;;;;;4936441;29;20098;-79
2023/12/21 03:41:56;;;;;;;2.03;1.45;;;9.80;88.70;;;;;;4945336;29;20377;-79
2023/12/21 03:44:22;;;;;;;1.70;1.58;;;9.90;88.60;;;;;;4947218;29;20036;-82
2023/12/21 03:46:48;;;;;;;2.70;1.65;;;9.80;88.30;;;;;;4926688;29;20040;-82
2023/12/21 03:49:14;;;;;;;2.10;1.90;;;9.80;88.00;;;;;;4945285;29;20847;-80
2023/12/21 03:51:40;;;;;;;4.05;2.03;;;9.80;88.20;;;;;;4947508;29;20462;-80
2023/12/21 03:54:07;;;;;;;2.83;1.92;;;9.90;88.10;;;;;;4948136;29;20083;-84
2023/12/21 03:56:33;;;;;;;4.38;2.05;;;9.80;88.20;;;;;;4927972;29;20046;-80
2023/12/21 03:58:59;;;;;;;3.08;1.92;;;9.90;88.20;;;;;;4929315;29;20046;-80
2023/12/21 04:01:25;;;;;;;4.95;2.63;;;9.80;88.30;;;;;;4945724;28;20129;-77
2023/12/21 04:03:52;;;;;;;1.88;1.73;;;9.80;88.40;;;;;;4944922;29;20035;-76
2023/12/21 04:06:18;;;;;;;2.70;1.80;;;9.80;88.40;;;;;;4944453;29;20090;-75
2023/12/21 04:08:44;;;;;;;2.17;1.83;;;9.80;89.10;;;;;;4943779;29;20043;-75
2023/12/21 04:11:10;;;;;;;2.92;2.00;;;9.80;88.30;;;;;;4946035;29;20446;-76
2023/12/21 04:13:37;;;;;;;3.15;1.83;;;9.80;88.40;;;;;;4943857;29;20102;-76
2023/12/21 04:16:05;;;;;;;2.25;1.60;;;9.80;88.50;;;;;;4945730;29;20042;-76
2023/12/21 04:18:32;;;;;;;7.03;1.90;;;9.80;88.30;;;;;;4946798;29;20393;-79
2023/12/21 04:20:58;;;;;;;3.28;2.03;;;9.80;88.40;;;;;;4925497;29;20046;-81
2023/12/21 04:23:24;;;;;;;2.55;1.50;;;9.80;88.20;;;;;;4926628;29;20055;-79
2023/12/21 04:25:50;;;;;;;2.40;2.08;;;9.80;88.10;;;;;;4914140;29;20059;-80
2023/12/21 04:28:16;;;;;;;2.08;1.73;;;9.80;88.00;;;;;;4945274;28;20506;-76
2023/12/21 04:30:42;;;;;;;1.88;1.50;;;9.80;88.10;;;;;;4946151;28;20066;-76
2023/12/21 04:33:14;;;;;;;1.77;1.33;;;9.80;88.10;;;;;;4932839;29;20092;-77
2023/12/21 04:35:43;;;;;;;1.98;1.50;;;9.80;88.10;;;;;;4946883;29;20045;-77
2023/12/21 04:38:09;;;;;;;2.03;1.52;;;9.80;88.20;;;;;;4948616;29;20032;-78
2023/12/21 04:40:35;;;;;;;3.10;1.70;;;9.80;88.20;;;;;;4929351;29;20059;-80
2023/12/21 04:43:01;;;;;;;1.65;1.38;;;9.80;88.20;;;;;;4918914;29;20039;-88
2023/12/21 04:45:27;;;;;;;2.00;1.50;;;9.80;88.10;;;;;;4948027;29;20043;-89
2023/12/21 04:47:53;;;;;;;2.00;1.52;;;9.80;87.70;;;;;;4948604;29;20043;-84
2023/12/21 04:50:20;;;;;;;1.50;1.40;;;9.80;86.70;;;;;;4947963;29;20035;-82
2023/12/21 04:52:49;;;;;;;1.58;1.33;;;9.80;86.20;;;;;;4946565;29;20039;-83
2023/12/21 04:55:16;;;;;;;1.50;1.33;;;9.70;85.30;;;;;;4945460;29;20039;-82
2023/12/21 04:57:42;;;;;;;1.75;1.20;;;9.70;85.30;;;;;;4944782;29;20048;-81
2023/12/21 05:00:09;;;;;;;5.50;1.60;;;9.70;84.70;;;;;;4945748;29;20506;-82
2023/12/21 05:02:35;;;;;;;1.85;1.50;;;9.70;84.60;;;;;;4943214;28;20046;-79
2023/12/21 05:05:01;;;;;;;1.75;1.42;;;9.70;84.60;;;;;;4944305;29;20036;-79
2023/12/21 05:07:27;;;;;;;1.55;1.25;;;9.70;84.30;;;;;;4948878;29;20035;-80
2023/12/21 05:09:59;;;;;;;1.85;1.27;;;9.60;84.20;;;;;;4947365;29;20122;-80
2023/12/21 05:12:26;;;;;;;2.60;1.40;;;9.60;84.80;;;;;;4948101;29;20027;-80
2023/12/21 05:14:53;;;;;;;3.85;1.40;;;9.60;85.00;;;;;;4951227;29;20442;-80
2023/12/21 05:17:19;;;;;;;6.25;1.55;;;9.60;84.40;;;;;;4947981;29;20027;-78
2023/12/21 05:19:46;;;;;;;3.58;2.03;;;9.60;84.60;;;;;;4947996;29;20041;-80
2023/12/21 05:22:12;;;;;;;4.63;2.70;;;9.60;84.50;;;;;;4937296;29;20051;-80
2023/12/21 05:24:41;;;;;;;2.53;2.10;;;9.60;84.10;;;;;;4928834;29;20023;-79
2023/12/21 05:27:07;;;;;;;5.57;2.30;;;9.60;83.90;;;;;;4951786;29;20031;-80
2023/12/21 05:29:33;;;;;;;4.32;2.38;;;9.60;84.20;;;;;;4961535;28;20039;-80
2023/12/21 05:31:59;;;;;;;3.67;1.90;;;9.60;84.10;;;;;;4948341;29;20035;-78
2023/12/21 05:34:25;;;;;;;2.17;1.90;;;9.50;83.90;;;;;;4948625;29;20038;-79
2023/12/21 05:36:51;;;;;;;2.42;1.77;;;9.50;83.90;;;;;;4947508;29;20027;-77
2023/12/21 05:39:17;;;;;;;2.20;1.80;;;9.50;83.60;;;;;;4948395;29;20030;-80
2023/12/21 05:41:43;;;;;;;4.10;1.95;;;9.50;83.50;;;;;;4947470;28;20491;-80
2023/12/21 05:44:09;;;;;;;1.75;1.30;;;9.50;83.90;;;;;;4947354;29;20039;-78
2023/12/21 05:46:35;;;;;;;2.22;1.70;;;9.50;83.50;;;;;;4945888;29;20414;-78
2023/12/21 05:49:01;;;;;;;2.70;1.40;;;9.50;83.60;;;;;;4946580;29;20035;-80
2023/12/21 05:51:27;;;;;;;1.40;1.10;;;9.50;83.10;;;;;;4929436;28;20042;-78
2023/12/21 05:53:53;;;;;;;3.70;1.60;;;9.50;83.50;;;;;;4945326;28;20036;-78
2023/12/21 05:56:19;;;;;;;2.30;1.50;;;9.50;84.00;;;;;;4947677;29;20522;-80
2023/12/21 05:58:45;;;;;;;3.45;1.40;;;9.40;84.20;;;;;;4947422;29;20477;-81
2023/12/21 06:01:12;;;;;;;2.15;1.10;;;9.40;84.00;;;;;;4946694;29;20141;-78
2023/12/21 06:03:38;;;;;;;3.83;1.42;;;9.50;84.80;;;;;;4947589;29;20027;-78
2023/12/21 06:06:05;;;;;;;1.60;1.40;;;9.50;85.90;;;;;;4948317;29;20434;-88
2023/12/21 06:08:32;;;;;;;1.40;1.30;;;9.40;86.80;;;;;;4916336;29;20039;-78
2023/12/21 06:10:58;;;;;;;1.60;1.40;;;9.40;87.60;;;;;;4948305;29;20043;-81
2023/12/21 06:13:24;;;;;;;2.25;1.08;;;9.50;88.20;;;;;;4947899;29;20074;-80
2023/12/21 06:15:50;;;;;;;5.53;1.30;;;9.40;88.70;;;;;;4948851;29;20039;-79
2023/12/21 06:18:16;;;;;;;1.27;1.17;;;9.40;88.70;;;;;;4949820;29;20046;-79
2023/12/21 06:20:42;;;;;;;1.70;1.13;;;9.40;88.80;;;;;;4958772;28;20066;-81
2023/12/21 06:23:08;;;;;;;1.52;1.23;;;9.50;89.30;;;;;;4945987;28;20040;-82
2023/12/21 06:25:34;;;;;;;3.30;1.42;;;9.40;89.20;;;;;;4949674;29;20047;-81
2023/12/21 06:27:59;;;;;;;4.72;1.13;;;9.50;89.40;;;;;;4927901;29;20038;-78
2023/12/21 06:30:25;;;;;;;1.55;1.20;;;9.50;89.40;;;;;;4947787;29;20114;-79
2023/12/21 06:32:51;;;;;;;1.15;0.90;;;9.50;89.60;;;;;;4948561;29;20046;-81
2023/12/21 06:35:17;;;;;;;2.00;1.35;;;9.50;90.00;;;;;;4929522;29;20040;-81
2023/12/21 06:37:44;;;;;;;1.75;1.25;;;9.50;90.00;;;;;;4945589;29;20379;-81
2023/12/21 06:40:10;;;;;;;2.38;1.27;;;9.50;90.00;;;;;;4947080;29;20390;-80
2023/12/21 06:42:36;;;;;;;2.15;1.30;;;9.50;90.20;;;;;;4947454;29;20043;-81
2023/12/21 06:45:03;;;;;;;1.73;1.00;;;9.50;90.10;;;;;;4946162;29;20038;-81
2023/12/21 06:47:29;;;;;;;2.13;1.20;;;9.50;90.00;;;;;;4927107;29;20070;-84
2023/12/21 06:49:55;;;;;;;1.58;1.13;;;9.50;90.00;;;;;;4928897;29;20063;-80
2023/12/21 06:52:21;;;;;;;3.45;1.30;;;9.50;90.00;;;;;;4914971;29;20036;-85
2023/12/21 06:54:48;;;;;;;2.80;1.13;;;9.60;90.10;;;;;;4929087;29;20624;-83
2023/12/21 06:57:15;;;;;;;3.17;1.48;;;9.50;90.10;;;;;;4947647;29;20930;-87
2023/12/21 06:59:41;;;;;;;1.70;1.00;;;9.60;90.10;;;;;;4915640;29;20035;-86
2023/12/21 07:02:08;;;;;;;2.00;1.10;;;9.60;90.10;;;;;;4934666;29;20142;-84
2023/12/21 07:04:34;;;;;;;1.17;1.08;;;9.50;90.20;;;;;;4930709;29;20086;-82
2023/12/21 07:07:01;;;;;;;1.00;0.98;;;9.60;90.20;;;;;;4946898;29;20058;-85
2023/12/21 07:09:27;;;;;;;1.40;1.08;;;9.60;90.10;;;;;;4926626;29;20038;-84
2023/12/21 07:11:55;;;;;;;1.20;0.95;;;9.60;90.10;;;;;;4946833;29;20067;-85
2023/12/21 07:14:21;;;;;;;1.25;0.90;;;9.60;90.20;;;;;;4946406;29;20035;-85
2023/12/21 07:16:47;;;;;;;1.48;1.08;;;9.60;90.00;;;;;;4927338;29;20043;-83
2023/12/21 07:19:13;;;;;;;1.88;1.17;;;9.60;90.00;;;;;;4936206;29;20046;-85
2023/12/21 07:21:39;;;;;;;2.20;1.02;;;9.60;89.70;;;;;;4949427;29;20031;-83
2023/12/21 07:24:05;;;;;;;1.48;1.05;;;9.60;89.60;;;;;;4930420;29;20513;-84
2023/12/21 07:26:32;;;;;;;2.33;1.10;;;9.60;89.70;;;;;;4944041;29;20067;-81
2023/12/21 07:28:57;;;;;;;3.30;1.15;;;9.60;90.00;;;;;;4943576;29;20102;-81
2023/12/21 07:31:23;;;;;;;2.03;1.20;;;9.70;89.70;;;;;;4944549;29;20035;-84
2023/12/21 07:33:51;;;;;;;1.90;1.00;;;9.60;89.50;;;;;;4945339;29;20174;-84
2023/12/21 07:36:17;;;;;;;1.52;1.05;;;9.70;89.60;;;;;;4942261;29;20047;-84
2023/12/21 07:38:43;;;;;;;2.95;1.42;;;9.70;90.10;;;;;;4910258;29;20043;-81
2023/12/21 07:41:10;;;;;;;2.65;1.25;;;9.70;89.60;;;;;;4943893;29;20146;-84
2023/12/21 07:43:37;;;;;;;1.73;1.20;;;9.70;89.70;;;;;;4943262;29;20509;-79
2023/12/21 07:46:03;;;;;;;2.63;1.10;;;9.70;89.60;;;;;;4943169;29;20027;-81
2023/12/21 07:48:29;;;;;;;2.03;1.15;;;9.70;89.60;;;;;;4945437;29;20035;-83
2023/12/21 07:50:55;;;;;;;1.85;1.48;;;9.70;89.80;;;;;;4928587;29;20810;-78
2023/12/21 07:53:21;;;;;;;1.50;1.10;;;9.70;89.90;;;;;;4928106;29;20047;-82
2023/12/21 07:55:47;;;;;;;2.15;1.50;;;9.70;89.90;;;;;;4945002;29;20035;-82
2023/12/21 07:58:13;;;;;;;1.83;1.17;;;9.80;89.90;;;;;;4926240;29;20046;-82
2023/12/21 08:00:39;;;;;;;1.85;1.27;;;9.80;89.80;;;;;;4942758;29;20126;-81
2023/12/21 08:03:05;;;;;;;2.63;1.10;;;9.80;89.90;;;;;;4946693;29;20175;-85
2023/12/21 08:05:31;;;;;;;2.65;1.30;;;9.70;89.70;;;;;;4928141;29;20133;-82
2023/12/21 08:07:57;;;;;;;2.03;1.08;;;9.80;89.60;;;;;;4948940;29;20042;-81
2023/12/21 08:10:23;;;;;;;2.40;1.05;;;9.80;89.80;;;;;;4928659;29;20031;-82
2023/12/21 08:12:49;;;;;;;3.13;1.30;;;9.80;89.90;;;;;;4930179;29;20404;-82
2023/12/21 08:15:15;;;;;;;1.52;1.05;;;9.80;89.90;;;;;;4947315;29;21414;-80
2023/12/21 08:17:43;;;;;;;1.55;1.10;;;9.80;90.00;;;;;;4948419;29;20097;-83
2023/12/21 08:20:12;;;;;;;1.55;1.20;;;9.80;90.00;;;;;;4948220;29;20043;-82
2023/12/21 08:22:38;;;;;;;4.15;1.20;;;9.80;90.00;;;;;;4948061;29;20032;-82
2023/12/21 08:25:04;;;;;;;2.80;1.40;;;9.80;90.10;;;;;;4949285;29;20043;-79
2023/12/21 08:27:30;;;;;;;1.88;1.33;;;9.80;89.90;;;;;;4928772;29;20051;-83
2023/12/21 08:29:56;;;;;;;3.05;1.33;;;9.80;89.70;;;;;;4932997;29;20035;-82
2023/12/21 08:32:22;;;;;;;1.38;1.27;;;9.80;89.90;;;;;;4935951;29;20031;-81
2023/12/21 08:34:48;;;;;;;3.17;1.27;;;9.90;89.70;;;;;;4932518;29;20099;-81
2023/12/21 08:37:14;;;;;;;1.80;1.13;;;9.90;90.00;;;;;;4948761;29;20046;-81
2023/12/21 08:39:40;;;;;;;2.10;1.17;;;9.90;90.00;;;;;;4949054;29;20054;-81
2023/12/21 08:42:10;;;;;;;1.45;1.30;;;9.90;90.00;;;;;;4948548;29;20075;-82
2023/12/21 08:44:37;;;;;;;2.65;1.38;;;9.90;90.10;;;;;;4936570;29;20036;-81
2023/12/21 08:47:05;;;;;;;1.80;1.20;;;9.90;90.00;;;;;;4947967;29;20035;-81
2023/12/21 08:49:31;;;;;;;2.08;1.40;;;9.90;90.00;;;;;;4948523;29;20039;-79
2023/12/21 08:51:57;;;;;;;1.38;1.17;;;9.90;90.10;;;;;;4929667;29;20035;-80
2023/12/21 08:54:23;;;;;;;1.60;1.20;;;9.90;90.10;;;;;;4947415;29;20145;-81
2023/12/21 08:56:51;;;;;;;1.80;1.27;;;9.90;90.00;;;;;;4947195;29;20043;-82
2023/12/21 08:59:19;;;;;;;2.60;1.50;;;9.90;90.10;;;;;;4931320;29;20078;-81
2023/12/21 09:01:45;;;;;;;3.55;1.30;;;9.90;90.20;;;;;;4948202;29;20044;-80
2023/12/21 09:04:11;;;;;;;2.33;1.30;;;9.90;90.30;;;;;;4947660;29;20042;-80
2023/12/21 09:06:37;;;;;;;2.53;1.42;;;9.90;90.40;;;;;;4946878;29;20532;-81
2023/12/21 09:09:04;;;;;;;2.25;1.65;;;9.90;90.20;;;;;;4900157;29;20039;-81
2023/12/21 09:11:30;;;;;;;1.75;1.40;;;10.00;90.20;;;;;;4915924;29;20035;-81
2023/12/21 09:13:56;;;;;;;1.73;1.50;;;9.90;90.30;;;;;;4946035;29;20577;-81
2023/12/21 09:16:23;;;;;;;1.58;1.33;;;9.90;90.30;;;;;;4918069;28;20027;-78
2023/12/21 09:18:52;;;;;;;1.58;1.42;;;10.00;90.40;;;;;;4946505;29;20599;-80
2023/12/21 09:21:18;;;;;;;3.25;1.30;;;9.90;90.30;;;;;;4946095;29;20045;-82
2023/12/21 09:23:44;;;;;;;2.92;1.67;;;9.90;90.40;;;;;;4945814;29;20039;-82
2023/12/21 09:26:11;;;;;;;1.63;1.52;;;9.90;90.60;;;;;;4946463;29;20368;-83
2023/12/21 09:28:37;;;;;;;1.33;1.23;;;10.00;90.60;;;;;;4930268;29;20114;-83
2023/12/21 09:31:07;;;;;;;2.10;1.40;;;9.90;90.50;;;;;;4945265;29;20570;-82
2023/12/21 09:33:34;;;;;;;2.00;1.48;;;10.00;90.60;;;;;;4922805;29;20130;-82
2023/12/21 09:36:04;;;;;;;2.85;1.63;;;10.00;90.70;;;;;;4946575;29;20397;-83
2023/12/21 09:38:31;;;;;;;3.58;1.55;;;10.00;90.60;;;;;;4929418;29;20055;-82
2023/12/21 09:40:58;;;;;;;1.85;1.63;;;10.00;90.40;;;;;;4947216;29;20054;-80
2023/12/21 09:43:25;;;;;;;2.72;1.48;;;10.00;90.40;;;;;;4928361;29;20545;-83
2023/12/21 09:45:52;;;;;;;4.32;1.67;;;10.00;90.30;;;;;;4948235;29;20387;-83
2023/12/21 09:48:21;;;;;;;3.50;1.60;;;10.00;90.30;;;;;;4928646;29;20055;-81
2023/12/21 09:50:51;;;;;;;2.92;1.38;;;10.10;90.30;;;;;;4946580;29;20071;-82
2023/12/21 09:53:19;;;;;;;2.13;1.17;;;10.00;90.50;;;;;;4943654;29;20792;-82
2023/12/21 09:55:46;;;;;;;2.20;1.55;;;10.00;90.80;;;;;;4913645;29;20039;-83
2023/12/21 09:58:13;;;;;;;1.85;1.50;;;10.10;90.60;;;;;;4934203;29;20097;-83
2023/12/21 10:00:39;;;;;;;2.05;1.40;;;10.10;90.60;;;;;;4914145;29;20046;-81
2023/12/21 10:03:06;;;;;;;2.00;1.17;;;10.10;90.70;;;;;;4946199;29;20232;-82
2023/12/21 10:05:32;;;;;;;1.30;1.20;;;10.10;90.60;;;;;;4946370;28;20031;-83
2023/12/21 10:07:59;;;;;;;1.25;1.00;;;10.10;90.60;;;;;;4945480;29;20031;-83
2023/12/21 10:10:25;;;;;;;1.83;1.05;;;10.10;90.70;;;;;;4925999;29;20137;-82
2023/12/21 10:12:52;;;;;;;1.40;1.27;;;10.10;90.90;;;;;;4946928;29;20031;-79
2023/12/21 10:15:19;;;;;;;1.85;1.40;;;10.10;90.80;;;;;;4929122;29;20066;-88
2023/12/21 10:17:45;;;;;;;1.77;1.13;;;10.20;90.90;;;;;;4948794;29;20050;-80
2023/12/21 10:20:12;;;;;;;2.40;1.23;;;10.30;92.40;;;;;;4935739;29;20043;-80
2023/12/21 10:22:40;;;;;;;1.73;1.10;;;10.30;92.90;;;;;;4929950;29;20605;-80
2023/12/21 10:25:07;;;;;;;0.90;0.90;;;10.40;93.10;;;;;;4930776;29;20031;-78
2023/12/21 10:27:34;;;;;;;1.73;1.20;;;10.40;92.70;;;;;;4946985;29;20577;-78
2023/12/21 10:30:02;;;;;;;2.55;1.30;;;10.50;92.60;;;;;;4946908;28;20090;-75
2023/12/21 10:32:30;;;;;;;2.20;1.40;;;10.50;92.90;;;;;;4928819;29;20043;-74
2023/12/21 10:34:59;;;;;;;1.88;1.02;;;10.60;93.00;;;;;;4928729;29;20042;-75
2023/12/21 10:37:25;;;;;;;1.00;0.90;;;10.60;92.60;;;;;;4944388;29;20029;-76
2023/12/21 10:39:52;;;;;;;1.23;1.08;;;10.60;92.30;;;;;;4944876;29;20042;-75
2023/12/21 10:42:21;;;;;;;1.73;1.10;;;10.60;92.00;;;;;;4925117;29;20042;-75
2023/12/21 10:44:48;;;;;;;1.33;1.10;;;10.60;91.60;;;;;;4944881;29;20070;-75
2023/12/21 10:47:18;;;;;;;1.55;0.85;;;10.60;91.30;;;;;;4945316;29;20035;-75
2023/12/21 10:49:45;;;;;;;1.48;0.70;;;10.60;91.00;;;;;;4942643;28;20031;-75
2023/12/21 10:52:12;;;;;;;1.42;0.80;;;10.60;90.80;;;;;;4944731;29;20031;-75
2023/12/21 10:54:42;;;;;;;1.02;0.80;;;10.60;90.70;;;;;;4942837;29;20039;-75
2023/12/21 10:57:09;;;;;;;1.35;1.15;;;10.60;90.50;;;;;;4911260;29;20066;-74
2023/12/21 10:59:36;;;;;;;1.45;0.93;;;10.60;90.40;;;;;;4946006;29;20134;-74
2023/12/21 11:02:03;;;;;;;1.13;1.02;;;10.60;90.30;;;;;;4947206;28;20107;-76
2023/12/21 11:04:30;;;;;;;0.98;0.90;;;10.60;90.30;;;;;;4910467;29;20039;-75
2023/12/21 11:06:57;;;;;;;2.53;1.40;;;10.60;90.20;;;;;;4943360;29;20043;-75
2023/12/21 11:09:25;;;;;;;1.33;0.98;;;10.60;90.30;;;;;;4926919;29;20039;-75
2023/12/21 11:11:57;;;;;;;1.33;1.23;;;10.60;90.20;;;;;;4944849;29;20032;-75
2023/12/21 11:14:24;;;;;;;0.95;0.82;;;10.60;90.00;;;;;;4944835;29;20043;-75
2023/12/21 11:16:57;;;;;;;3.72;1.15;;;10.60;90.30;;;;;;4943443;29;20031;-74
2023/12/21 11:19:38;;;;;;;1.17;0.82;;;10.50;90.20;;;;;;4942897;29;20087;-76
2023/12/21 11:22:04;;;;;;;1.38;0.80;;;10.60;90.20;;;;;;4926478;29;20041;-74
2023/12/21 11:24:31;;;;;;;2.13;1.20;;;10.60;90.20;;;;;;4929102;29;21015;-74
2023/12/21 11:26:59;;;;;;;1.00;0.90;;;10.60;90.10;;;;;;4943397;29;20036;-73
2023/12/21 11:29:27;;;;;;;1.55;1.25;;;10.60;89.90;;;;;;4944854;29;20039;-73
2023/12/21 11:31:54;;;;;;;1.33;1.00;;;10.60;90.00;;;;;;4944416;29;20426;-76
2023/12/21 11:34:33;;;;;;;0.80;0.80;;;10.60;90.00;;;;;;4944926;29;20039;-73
2023/12/21 11:37:37;;;;;;;0.90;0.90;;;10.60;90.00;;;;;;4942581;29;20123;-74
2023/12/21 11:40:04;;;;;;;2.25;1.05;;;10.50;89.60;;;;;;4886124;29;20041;-74
2023/12/21 11:42:37;;;;;;;0.88;0.85;;;10.50;89.90;;;;;;4890885;29;20568;-73
2023/12/21 11:45:09;;;;;;;1.48;1.00;;;10.50;90.10;;;;;;4889962;29;20037;-73
2023/12/21 11:47:35;;;;;;;3.28;1.00;;;10.50;90.10;;;;;;4890458;29;20052;-74
2023/12/21 11:50:09;;;;;;;2.05;0.93;;;10.50;90.00;;;;;;4889771;29;20622;-73
2023/12/21 11:52:36;;;;;;;1.48;1.02;;;10.50;90.00;;;;;;4872908;29;20849;-73
2023/12/21 11:55:02;;;;;;;2.38;1.42;;;10.50;90.00;;;;;;4873339;29;20048;-74
2023/12/21 11:57:29;;;;;;;2.42;1.27;;;10.50;89.80;;;;;;4876246;29;20975;-73
2023/12/21 12:00:31;;;;;;;0.85;0.75;;;10.50;89.40;;;;;;4874089;29;20060;-73
2023/12/21 12:02:58;;;;;;;1.20;1.10;;;10.50;88.80;;;;;;4832253;29;20429;-72
2023/12/21 12:05:24;;;;;;;1.60;1.17;;;10.50;88.70;;;;;;4834067;29;20080;-75
2023/12/21 12:07:50;;;;;;;2.05;1.30;;;10.50;88.60;;;;;;4834438;29;20045;-75
2023/12/21 12:10:19;;;;;;;1.92;1.25;;;10.50;88.50;;;;;;4818130;29;20049;-75
2023/12/21 12:12:45;;;;;;;1.65;1.42;;;10.50;88.60;;;;;;4820326;29;20046;-74
2023/12/21 12:15:11;;;;;;;1.67;1.50;;;10.50;88.40;;;;;;4870760;29;20029;-75
2023/12/21 12:17:43;;;;;;;1.75;1.25;;;10.50;88.20;;;;;;4854883;29;20041;-75
2023/12/21 12:20:10;;;;;;;2.45;1.10;;;10.50;88.50;;;;;;4870841;29;20041;-75
2023/12/21 12:22:37;;;;;;;1.73;1.38;;;10.40;89.10;;;;;;4870881;29;20034;-75
2023/12/21 12:25:04;;;;;;;2.47;1.42;;;10.50;88.40;;;;;;4870699;29;20051;-73
2023/12/21 12:27:30;;;;;;;1.38;1.27;;;10.40;88.50;;;;;;4870810;29;20086;-74
2023/12/21 12:29:57;;;;;;;1.48;1.38;;;10.40;88.60;;;;;;4871154;29;20043;-74
2023/12/21 12:32:23;;;;;;;1.52;1.42;;;10.50;88.70;;;;;;4870990;29;20088;-74
2023/12/21 12:34:50;;;;;;;1.92;1.60;;;10.40;88.40;;;;;;4870581;29;20037;-75
2023/12/21 12:37:18;;;;;;;2.17;1.55;;;10.40;88.70;;;;;;4855150;29;20037;-74
2023/12/21 12:39:48;;;;;;;1.95;1.35;;;10.40;88.20;;;;;;4917759;29;20034;-74
2023/12/21 12:42:17;;;;;;;1.40;1.30;;;10.40;88.00;;;;;;4947263;29;20126;-74
2023/12/21 12:44:44;;;;;;;1.77;1.48;;;10.40;87.70;;;;;;4947763;29;20031;-74
2023/12/21 12:47:10;;;;;;;1.33;1.23;;;10.40;88.00;;;;;;4930342;29;20039;-74
2023/12/21 12:49:37;;;;;;;1.75;1.50;;;10.40;88.20;;;;;;4947180;29;20054;-74
2023/12/21 12:52:07;;;;;;;1.38;1.25;;;10.40;88.70;;;;;;4945102;28;20684;-75